sensor_id;sensor_type;location;lat;lon;timestamp;P1;durP1;ratioP1;P2;durP2;ratioP2
45077;SDS011;60508;42.622;25.416;2024-03-08T00:01:35;12.35;;;9.40;;
45077;SDS011;60508;42.622;25.416;2024-03-08T00:04:02;14.88;;;10.13;;
45077;SDS011;60508;42.622;25.416;2024-03-08T00:06:48;15.60;;;11.60;;
45077;SDS011;60508;42.622;25.416;2024-03-08T00:09:16;16.98;;;9.52;;
45077;SDS011;60508;42.622;25.416;2024-03-08T00:11:43;18.65;;;11.35;;
45077;SDS011;60508;42.622;25.416;2024-03-08T00:14:09;14.68;;;9.93;;
45077;SDS011;60508;42.622;25.416;2024-03-08T00:16:36;11.80;;;8.90;;
45077;SDS011;60508;42.622;25.416;2024-03-08T00:19:23;9.52;;;7.65;;
45077;SDS011;60508;42.622;25.416;2024-03-08T00:21:49;12.15;;;8.15;;
45077;SDS011;60508;42.622;25.416;2024-03-08T00:24:36;11.30;;;8.13;;
45077;SDS011;60508;42.622;25.416;2024-03-08T00:27:03;10.93;;;7.85;;
45077;SDS011;60508;42.622;25.416;2024-03-08T00:29:30;10.57;;;7.50;;
45077;SDS011;60508;42.622;25.416;2024-03-08T00:32:17;15.48;;;8.23;;
45077;SDS011;60508;42.622;25.416;2024-03-08T00:34:45;13.25;;;9.30;;
45077;SDS011;60508;42.622;25.416;2024-03-08T00:37:11;15.52;;;10.00;;
45077;SDS011;60508;42.622;25.416;2024-03-08T00:39:58;14.45;;;9.77;;
45077;SDS011;60508;42.622;25.416;2024-03-08T00:42:24;19.77;;;11.55;;
45077;SDS011;60508;42.622;25.416;2024-03-08T00:45:11;15.68;;;10.68;;
45077;SDS011;60508;42.622;25.416;2024-03-08T00:47:41;15.23;;;10.18;;
45077;SDS011;60508;42.622;25.416;2024-03-08T00:50:10;13.07;;;10.30;;
45077;SDS011;60508;42.622;25.416;2024-03-08T00:52:36;17.58;;;8.93;;
45077;SDS011;60508;42.622;25.416;2024-03-08T00:55:03;12.05;;;8.63;;
45077;SDS011;60508;42.622;25.416;2024-03-08T00:57:50;14.52;;;9.52;;
45077;SDS011;60508;42.622;25.416;2024-03-08T01:00:18;12.55;;;9.68;;
45077;SDS011;60508;42.622;25.416;2024-03-08T01:02:46;12.95;;;9.20;;
45077;SDS011;60508;42.622;25.416;2024-03-08T01:05:13;14.00;;;9.93;;
45077;SDS011;60508;42.622;25.416;2024-03-08T01:07:39;14.70;;;9.52;;
45077;SDS011;60508;42.622;25.416;2024-03-08T01:10:25;15.23;;;10.02;;
45077;SDS011;60508;42.622;25.416;2024-03-08T01:12:53;15.25;;;8.57;;
45077;SDS011;60508;42.622;25.416;2024-03-08T01:15:21;13.25;;;8.60;;
45077;SDS011;60508;42.622;25.416;2024-03-08T01:17:51;10.75;;;8.23;;
45077;SDS011;60508;42.622;25.416;2024-03-08T01:20:41;13.70;;;9.45;;
45077;SDS011;60508;42.622;25.416;2024-03-08T01:23:07;10.32;;;7.85;;
45077;SDS011;60508;42.622;25.416;2024-03-08T01:25:38;11.73;;;8.05;;
45077;SDS011;60508;42.622;25.416;2024-03-08T01:28:06;13.00;;;9.82;;
45077;SDS011;60508;42.622;25.416;2024-03-08T01:30:33;14.35;;;8.05;;
45077;SDS011;60508;42.622;25.416;2024-03-08T01:33:01;15.40;;;9.98;;
45077;SDS011;60508;42.622;25.416;2024-03-08T01:35:47;14.95;;;9.30;;
45077;SDS011;60508;42.622;25.416;2024-03-08T01:38:14;16.08;;;10.68;;
45077;SDS011;60508;42.622;25.416;2024-03-08T01:40:41;15.95;;;11.75;;
45077;SDS011;60508;42.622;25.416;2024-03-08T01:43:28;20.08;;;11.70;;
45077;SDS011;60508;42.622;25.416;2024-03-08T01:45:56;16.50;;;10.43;;
45077;SDS011;60508;42.622;25.416;2024-03-08T01:48:47;17.15;;;10.82;;
45077;SDS011;60508;42.622;25.416;2024-03-08T01:51:16;12.75;;;8.98;;
45077;SDS011;60508;42.622;25.416;2024-03-08T01:53:43;16.65;;;9.70;;
45077;SDS011;60508;42.622;25.416;2024-03-08T01:56:12;13.32;;;10.00;;
45077;SDS011;60508;42.622;25.416;2024-03-08T01:58:59;18.20;;;12.40;;
45077;SDS011;60508;42.622;25.416;2024-03-08T02:01:26;16.77;;;11.13;;
45077;SDS011;60508;42.622;25.416;2024-03-08T02:04:14;15.38;;;10.10;;
45077;SDS011;60508;42.622;25.416;2024-03-08T02:06:41;11.63;;;9.05;;
45077;SDS011;60508;42.622;25.416;2024-03-08T02:09:07;15.55;;;11.07;;
45077;SDS011;60508;42.622;25.416;2024-03-08T02:11:34;20.65;;;13.00;;
45077;SDS011;60508;42.622;25.416;2024-03-08T02:14:01;20.23;;;12.65;;
45077;SDS011;60508;42.622;25.416;2024-03-08T02:16:28;21.90;;;12.48;;
45077;SDS011;60508;42.622;25.416;2024-03-08T02:18:54;24.40;;;13.65;;
45077;SDS011;60508;42.622;25.416;2024-03-08T02:21:22;21.15;;;14.68;;
45077;SDS011;60508;42.622;25.416;2024-03-08T02:23:48;20.23;;;13.48;;
45077;SDS011;60508;42.622;25.416;2024-03-08T02:26:18;24.88;;;15.52;;
45077;SDS011;60508;42.622;25.416;2024-03-08T02:29:04;22.65;;;15.07;;
45077;SDS011;60508;42.622;25.416;2024-03-08T02:31:31;24.20;;;14.70;;
45077;SDS011;60508;42.622;25.416;2024-03-08T02:34:17;23.38;;;14.45;;
45077;SDS011;60508;42.622;25.416;2024-03-08T02:36:43;22.75;;;14.98;;
45077;SDS011;60508;42.622;25.416;2024-03-08T02:39:10;28.42;;;16.98;;
45077;SDS011;60508;42.622;25.416;2024-03-08T02:41:56;22.70;;;13.45;;
45077;SDS011;60508;42.622;25.416;2024-03-08T02:44:23;24.15;;;13.65;;
45077;SDS011;60508;42.622;25.416;2024-03-08T02:46:49;21.80;;;12.55;;
45077;SDS011;60508;42.622;25.416;2024-03-08T02:49:36;21.65;;;13.90;;
45077;SDS011;60508;42.622;25.416;2024-03-08T02:52:04;21.17;;;14.07;;
45077;SDS011;60508;42.622;25.416;2024-03-08T02:54:51;28.48;;;14.05;;
45077;SDS011;60508;42.622;25.416;2024-03-08T02:57:17;22.50;;;13.35;;
45077;SDS011;60508;42.622;25.416;2024-03-08T02:59:44;25.30;;;15.23;;
45077;SDS011;60508;42.622;25.416;2024-03-08T03:02:11;25.08;;;15.73;;
45077;SDS011;60508;42.622;25.416;2024-03-08T03:04:41;28.15;;;16.15;;
45077;SDS011;60508;42.622;25.416;2024-03-08T03:07:07;29.25;;;17.42;;
45077;SDS011;60508;42.622;25.416;2024-03-08T03:09:34;26.02;;;17.50;;
45077;SDS011;60508;42.622;25.416;2024-03-08T03:12:21;29.58;;;17.70;;
45077;SDS011;60508;42.622;25.416;2024-03-08T03:14:47;28.05;;;17.15;;
45077;SDS011;60508;42.622;25.416;2024-03-08T03:17:13;28.67;;;16.20;;
45077;SDS011;60508;42.622;25.416;2024-03-08T03:19:43;27.42;;;16.38;;
45077;SDS011;60508;42.622;25.416;2024-03-08T03:22:29;26.13;;;17.15;;
45077;SDS011;60508;42.622;25.416;2024-03-08T03:24:56;28.23;;;16.30;;
45077;SDS011;60508;42.622;25.416;2024-03-08T03:27:24;27.45;;;15.63;;
45077;SDS011;60508;42.622;25.416;2024-03-08T03:32:19;31.52;;;15.90;;
45077;SDS011;60508;42.622;25.416;2024-03-08T03:34:46;22.38;;;13.90;;
45077;SDS011;60508;42.622;25.416;2024-03-08T03:37:32;21.50;;;13.75;;
45077;SDS011;60508;42.622;25.416;2024-03-08T03:39:59;22.10;;;13.07;;
45077;SDS011;60508;42.622;25.416;2024-03-08T03:42:27;25.02;;;13.95;;
45077;SDS011;60508;42.622;25.416;2024-03-08T03:44:54;34.15;;;16.10;;
45077;SDS011;60508;42.622;25.416;2024-03-08T03:47:20;25.50;;;14.75;;
45077;SDS011;60508;42.622;25.416;2024-03-08T03:49:47;25.30;;;16.00;;
45077;SDS011;60508;42.622;25.416;2024-03-08T03:52:13;22.70;;;15.43;;
45077;SDS011;60508;42.622;25.416;2024-03-08T03:54:39;26.15;;;13.70;;
45077;SDS011;60508;42.622;25.416;2024-03-08T03:57:06;22.73;;;15.07;;
45077;SDS011;60508;42.622;25.416;2024-03-08T03:59:33;21.35;;;13.65;;
45077;SDS011;60508;42.622;25.416;2024-03-08T04:02:20;24.25;;;13.50;;
45077;SDS011;60508;42.622;25.416;2024-03-08T04:04:47;32.45;;;13.40;;
45077;SDS011;60508;42.622;25.416;2024-03-08T04:07:13;23.10;;;13.45;;
45077;SDS011;60508;42.622;25.416;2024-03-08T04:10:01;22.67;;;13.25;;
45077;SDS011;60508;42.622;25.416;2024-03-08T04:12:28;22.58;;;13.02;;
45077;SDS011;60508;42.622;25.416;2024-03-08T04:14:55;17.83;;;11.77;;
45077;SDS011;60508;42.622;25.416;2024-03-08T04:17:22;22.77;;;13.77;;
45077;SDS011;60508;42.622;25.416;2024-03-08T04:20:10;30.17;;;15.27;;
45077;SDS011;60508;42.622;25.416;2024-03-08T04:22:37;25.83;;;14.52;;
45077;SDS011;60508;42.622;25.416;2024-03-08T04:25:25;24.98;;;13.75;;
45077;SDS011;60508;42.622;25.416;2024-03-08T04:27:51;23.52;;;13.93;;
45077;SDS011;60508;42.622;25.416;2024-03-08T04:30:18;28.73;;;15.02;;
45077;SDS011;60508;42.622;25.416;2024-03-08T04:33:07;21.30;;;13.43;;
45077;SDS011;60508;42.622;25.416;2024-03-08T04:35:34;24.83;;;13.52;;
45077;SDS011;60508;42.622;25.416;2024-03-08T04:38:01;21.08;;;13.98;;
45077;SDS011;60508;42.622;25.416;2024-03-08T04:40:27;22.48;;;13.35;;
45077;SDS011;60508;42.622;25.416;2024-03-08T04:42:53;23.02;;;13.32;;
45077;SDS011;60508;42.622;25.416;2024-03-08T04:45:20;22.75;;;14.50;;
45077;SDS011;60508;42.622;25.416;2024-03-08T04:48:07;20.02;;;12.20;;
45077;SDS011;60508;42.622;25.416;2024-03-08T04:50:34;22.92;;;14.57;;
45077;SDS011;60508;42.622;25.416;2024-03-08T04:53:01;24.58;;;13.93;;
45077;SDS011;60508;42.622;25.416;2024-03-08T04:55:47;23.23;;;14.00;;
45077;SDS011;60508;42.622;25.416;2024-03-08T04:58:13;28.92;;;14.02;;
45077;SDS011;60508;42.622;25.416;2024-03-08T05:00:40;20.60;;;13.05;;
45077;SDS011;60508;42.622;25.416;2024-03-08T05:03:06;20.70;;;14.30;;
45077;SDS011;60508;42.622;25.416;2024-03-08T05:05:53;23.48;;;13.90;;
45077;SDS011;60508;42.622;25.416;2024-03-08T05:08:19;23.63;;;15.00;;
45077;SDS011;60508;42.622;25.416;2024-03-08T05:10:46;19.30;;;13.63;;
45077;SDS011;60508;42.622;25.416;2024-03-08T05:13:32;22.75;;;13.43;;
45077;SDS011;60508;42.622;25.416;2024-03-08T05:16:01;24.58;;;16.35;;
45077;SDS011;60508;42.622;25.416;2024-03-08T05:18:28;24.35;;;16.13;;
45077;SDS011;60508;42.622;25.416;2024-03-08T05:20:54;23.67;;;15.55;;
45077;SDS011;60508;42.622;25.416;2024-03-08T05:23:21;21.80;;;14.80;;
45077;SDS011;60508;42.622;25.416;2024-03-08T05:26:08;23.33;;;14.82;;
45077;SDS011;60508;42.622;25.416;2024-03-08T05:28:34;26.92;;;15.43;;
45077;SDS011;60508;42.622;25.416;2024-03-08T05:31:00;22.77;;;14.50;;
45077;SDS011;60508;42.622;25.416;2024-03-08T05:33:27;22.55;;;14.25;;
45077;SDS011;60508;42.622;25.416;2024-03-08T05:35:53;18.45;;;12.57;;
45077;SDS011;60508;42.622;25.416;2024-03-08T05:38:20;23.25;;;14.77;;
45077;SDS011;60508;42.622;25.416;2024-03-08T05:40:47;24.98;;;13.85;;
45077;SDS011;60508;42.622;25.416;2024-03-08T05:43:13;20.13;;;12.18;;
45077;SDS011;60508;42.622;25.416;2024-03-08T05:46:03;21.38;;;13.43;;
45077;SDS011;60508;42.622;25.416;2024-03-08T05:48:30;25.52;;;13.95;;
45077;SDS011;60508;42.622;25.416;2024-03-08T05:50:59;20.77;;;13.48;;
45077;SDS011;60508;42.622;25.416;2024-03-08T05:53:46;24.02;;;14.40;;
45077;SDS011;60508;42.622;25.416;2024-03-08T05:56:12;19.00;;;12.15;;
45077;SDS011;60508;42.622;25.416;2024-03-08T05:58:39;21.15;;;12.43;;
45077;SDS011;60508;42.622;25.416;2024-03-08T06:01:05;29.52;;;15.45;;
45077;SDS011;60508;42.622;25.416;2024-03-08T06:03:34;21.60;;;12.73;;
45077;SDS011;60508;42.622;25.416;2024-03-08T06:06:00;16.58;;;12.50;;
45077;SDS011;60508;42.622;25.416;2024-03-08T06:08:47;19.33;;;13.73;;
45077;SDS011;60508;42.622;25.416;2024-03-08T06:11:15;20.80;;;13.55;;
45077;SDS011;60508;42.622;25.416;2024-03-08T06:14:03;19.33;;;12.73;;
45077;SDS011;60508;42.622;25.416;2024-03-08T06:16:30;23.20;;;14.13;;
45077;SDS011;60508;42.622;25.416;2024-03-08T06:18:56;27.17;;;13.98;;
45077;SDS011;60508;42.622;25.416;2024-03-08T06:21:43;21.05;;;14.10;;
45077;SDS011;60508;42.622;25.416;2024-03-08T06:24:09;20.42;;;13.60;;
45077;SDS011;60508;42.622;25.416;2024-03-08T06:26:35;21.08;;;12.90;;
45077;SDS011;60508;42.622;25.416;2024-03-08T06:29:03;29.20;;;14.65;;
45077;SDS011;60508;42.622;25.416;2024-03-08T06:31:32;18.85;;;13.27;;
45077;SDS011;60508;42.622;25.416;2024-03-08T06:34:19;18.58;;;13.07;;
45077;SDS011;60508;42.622;25.416;2024-03-08T06:36:45;24.45;;;14.32;;
45077;SDS011;60508;42.622;25.416;2024-03-08T06:39:11;25.15;;;14.77;;
45077;SDS011;60508;42.622;25.416;2024-03-08T06:41:38;22.55;;;13.10;;
45077;SDS011;60508;42.622;25.416;2024-03-08T06:44:04;22.02;;;13.73;;
45077;SDS011;60508;42.622;25.416;2024-03-08T06:46:51;21.17;;;13.80;;
45077;SDS011;60508;42.622;25.416;2024-03-08T06:49:20;21.80;;;13.88;;
45077;SDS011;60508;42.622;25.416;2024-03-08T06:51:47;20.20;;;13.68;;
45077;SDS011;60508;42.622;25.416;2024-03-08T06:54:13;22.10;;;14.02;;
45077;SDS011;60508;42.622;25.416;2024-03-08T06:57:00;19.85;;;12.13;;
45077;SDS011;60508;42.622;25.416;2024-03-08T06:59:27;22.48;;;13.60;;
45077;SDS011;60508;42.622;25.416;2024-03-08T07:02:13;16.73;;;11.95;;
45077;SDS011;60508;42.622;25.416;2024-03-08T07:04:40;20.45;;;12.55;;
45077;SDS011;60508;42.622;25.416;2024-03-08T07:07:26;21.52;;;13.02;;
45077;SDS011;60508;42.622;25.416;2024-03-08T07:09:52;19.95;;;12.70;;
45077;SDS011;60508;42.622;25.416;2024-03-08T07:12:20;21.20;;;12.88;;
45077;SDS011;60508;42.622;25.416;2024-03-08T07:14:47;23.13;;;12.90;;
45077;SDS011;60508;42.622;25.416;2024-03-08T07:17:33;20.08;;;11.88;;
45077;SDS011;60508;42.622;25.416;2024-03-08T07:20:01;23.77;;;12.90;;
45077;SDS011;60508;42.622;25.416;2024-03-08T07:22:54;27.45;;;13.65;;
45077;SDS011;60508;42.622;25.416;2024-03-08T07:25:20;20.48;;;14.57;;
45077;SDS011;60508;42.622;25.416;2024-03-08T07:28:07;21.70;;;14.55;;
45077;SDS011;60508;42.622;25.416;2024-03-08T07:30:33;26.40;;;14.57;;
45077;SDS011;60508;42.622;25.416;2024-03-08T07:33:12;25.83;;;15.80;;
45077;SDS011;60508;42.622;25.416;2024-03-08T07:35:39;25.60;;;14.18;;
45077;SDS011;60508;42.622;25.416;2024-03-08T07:38:06;20.10;;;13.50;;
45077;SDS011;60508;42.622;25.416;2024-03-08T07:40:35;16.08;;;10.73;;
45077;SDS011;60508;42.622;25.416;2024-03-08T07:43:10;18.67;;;10.25;;
45077;SDS011;60508;42.622;25.416;2024-03-08T07:45:57;17.80;;;11.18;;
45077;SDS011;60508;42.622;25.416;2024-03-08T07:48:23;19.60;;;10.73;;
45077;SDS011;60508;42.622;25.416;2024-03-08T07:51:10;22.90;;;15.73;;
45077;SDS011;60508;42.622;25.416;2024-03-08T07:53:38;23.77;;;15.38;;
45077;SDS011;60508;42.622;25.416;2024-03-08T07:56:24;18.92;;;12.80;;
45077;SDS011;60508;42.622;25.416;2024-03-08T07:58:51;20.55;;;12.57;;
45077;SDS011;60508;42.622;25.416;2024-03-08T08:01:19;20.77;;;13.75;;
45077;SDS011;60508;42.622;25.416;2024-03-08T08:03:45;20.42;;;12.25;;
45077;SDS011;60508;42.622;25.416;2024-03-08T08:06:15;23.00;;;15.23;;
45077;SDS011;60508;42.622;25.416;2024-03-08T08:09:02;16.13;;;11.30;;
45077;SDS011;60508;42.622;25.416;2024-03-08T08:11:28;21.20;;;13.23;;
45077;SDS011;60508;42.622;25.416;2024-03-08T08:13:55;27.80;;;16.27;;
45077;SDS011;60508;42.622;25.416;2024-03-08T08:16:24;25.60;;;15.93;;
45077;SDS011;60508;42.622;25.416;2024-03-08T08:19:11;28.33;;;17.58;;
45077;SDS011;60508;42.622;25.416;2024-03-08T08:21:38;26.38;;;15.75;;
45077;SDS011;60508;42.622;25.416;2024-03-08T08:24:05;27.08;;;17.67;;
45077;SDS011;60508;42.622;25.416;2024-03-08T08:26:52;20.98;;;12.10;;
45077;SDS011;60508;42.622;25.416;2024-03-08T08:29:18;22.65;;;13.80;;
45077;SDS011;60508;42.622;25.416;2024-03-08T08:31:46;5.88;;;5.00;;
45077;SDS011;60508;42.622;25.416;2024-03-08T08:34:13;7.90;;;5.25;;
45077;SDS011;60508;42.622;25.416;2024-03-08T08:36:39;9.75;;;6.10;;
45077;SDS011;60508;42.622;25.416;2024-03-08T08:39:06;2.17;;;1.98;;
45077;SDS011;60508;42.622;25.416;2024-03-08T08:41:39;4.35;;;2.63;;
45077;SDS011;60508;42.622;25.416;2024-03-08T08:44:08;4.00;;;2.92;;
45077;SDS011;60508;42.622;25.416;2024-03-08T08:46:36;2.60;;;1.95;;
45077;SDS011;60508;42.622;25.416;2024-03-08T08:49:04;2.55;;;2.05;;
45077;SDS011;60508;42.622;25.416;2024-03-08T08:51:32;5.00;;;2.95;;
45077;SDS011;60508;42.622;25.416;2024-03-08T08:54:21;7.63;;;4.07;;
45077;SDS011;60508;42.622;25.416;2024-03-08T08:56:48;5.65;;;3.75;;
45077;SDS011;60508;42.622;25.416;2024-03-08T08:59:34;4.28;;;2.72;;
45077;SDS011;60508;42.622;25.416;2024-03-08T09:02:06;9.68;;;6.38;;
45077;SDS011;60508;42.622;25.416;2024-03-08T09:04:52;2.42;;;2.22;;
45077;SDS011;60508;42.622;25.416;2024-03-08T09:07:19;5.70;;;4.43;;
45077;SDS011;60508;42.622;25.416;2024-03-08T09:09:45;4.30;;;3.42;;
45077;SDS011;60508;42.622;25.416;2024-03-08T09:12:12;2.75;;;2.47;;
45077;SDS011;60508;42.622;25.416;2024-03-08T09:14:41;2.28;;;1.85;;
45077;SDS011;60508;42.622;25.416;2024-03-08T09:17:08;6.05;;;2.67;;
45077;SDS011;60508;42.622;25.416;2024-03-08T09:19:35;5.20;;;3.03;;
45077;SDS011;60508;42.622;25.416;2024-03-08T09:22:22;2.03;;;1.70;;
45077;SDS011;60508;42.622;25.416;2024-03-08T09:24:50;2.88;;;2.50;;
45077;SDS011;60508;42.622;25.416;2024-03-08T09:27:17;1.60;;;1.13;;
45077;SDS011;60508;42.622;25.416;2024-03-08T09:29:44;1.75;;;1.65;;
45077;SDS011;60508;42.622;25.416;2024-03-08T09:32:30;1.85;;;1.48;;
45077;SDS011;60508;42.622;25.416;2024-03-08T09:34:59;2.67;;;2.47;;
45077;SDS011;60508;42.622;25.416;2024-03-08T09:37:27;2.17;;;1.10;;
45077;SDS011;60508;42.622;25.416;2024-03-08T09:39:53;1.80;;;1.70;;
45077;SDS011;60508;42.622;25.416;2024-03-08T09:42:39;3.65;;;3.35;;
45077;SDS011;60508;42.622;25.416;2024-03-08T09:45:09;2.95;;;2.42;;
45077;SDS011;60508;42.622;25.416;2024-03-08T09:47:57;3.85;;;2.63;;
45077;SDS011;60508;42.622;25.416;2024-03-08T09:50:23;4.57;;;3.53;;
45077;SDS011;60508;42.622;25.416;2024-03-08T09:52:52;1.70;;;1.35;;
45077;SDS011;60508;42.622;25.416;2024-03-08T09:55:39;3.85;;;1.58;;
45077;SDS011;60508;42.622;25.416;2024-03-08T09:58:11;1.35;;;1.25;;
45077;SDS011;60508;42.622;25.416;2024-03-08T10:00:57;1.08;;;0.98;;
45077;SDS011;60508;42.622;25.416;2024-03-08T10:03:23;1.70;;;1.60;;
45077;SDS011;60508;42.622;25.416;2024-03-08T10:05:53;1.73;;;1.33;;
45077;SDS011;60508;42.622;25.416;2024-03-08T10:08:26;2.10;;;1.83;;
45077;SDS011;60508;42.622;25.416;2024-03-08T10:13:47;1.92;;;1.63;;
45077;SDS011;60508;42.622;25.416;2024-03-08T10:16:34;2.83;;;1.70;;
45077;SDS011;60508;42.622;25.416;2024-03-08T10:19:01;1.65;;;1.40;;
45077;SDS011;60508;42.622;25.416;2024-03-08T10:21:29;2.15;;;1.95;;
45077;SDS011;60508;42.622;25.416;2024-03-08T10:24:15;2.88;;;2.40;;
45077;SDS011;60508;42.622;25.416;2024-03-08T10:26:41;1.75;;;1.55;;
45077;SDS011;60508;42.622;25.416;2024-03-08T10:29:10;2.78;;;1.00;;
45077;SDS011;60508;42.622;25.416;2024-03-08T10:31:59;1.50;;;1.40;;
45077;SDS011;60508;42.622;25.416;2024-03-08T10:34:27;2.17;;;1.98;;
45077;SDS011;60508;42.622;25.416;2024-03-08T10:37:15;3.55;;;1.50;;
45077;SDS011;60508;42.622;25.416;2024-03-08T10:39:45;11.02;;;5.28;;
45077;SDS011;60508;42.622;25.416;2024-03-08T10:42:28;3.13;;;2.50;;
45077;SDS011;60508;42.622;25.416;2024-03-08T10:45:06;4.40;;;3.85;;
45077;SDS011;60508;42.622;25.416;2024-03-08T10:50:57;3.88;;;2.38;;
45077;SDS011;60508;42.622;25.416;2024-03-08T10:53:57;2.33;;;2.13;;
45077;SDS011;60508;42.622;25.416;2024-03-08T10:56:25;5.10;;;3.40;;
45077;SDS011;60508;42.622;25.416;2024-03-08T10:58:54;2.13;;;1.92;;
45077;SDS011;60508;42.622;25.416;2024-03-08T11:01:21;6.78;;;3.67;;
45077;SDS011;60508;42.622;25.416;2024-03-08T11:03:48;3.78;;;2.65;;
45077;SDS011;60508;42.622;25.416;2024-03-08T11:06:41;3.22;;;2.53;;
45077;SDS011;60508;42.622;25.416;2024-03-08T11:09:26;3.78;;;2.92;;
45077;SDS011;60508;42.622;25.416;2024-03-08T11:12:28;2.67;;;1.88;;
45077;SDS011;60508;42.622;25.416;2024-03-08T11:15:10;2.60;;;1.73;;
45077;SDS011;60508;42.622;25.416;2024-03-08T11:23:06;7.60;;;4.70;;
45077;SDS011;60508;42.622;25.416;2024-03-08T11:25:34;5.55;;;3.45;;
45077;SDS011;60508;42.622;25.416;2024-03-08T11:28:25;17.73;;;8.70;;
45077;SDS011;60508;42.622;25.416;2024-03-08T11:33:45;2.85;;;2.13;;
45077;SDS011;60508;42.622;25.416;2024-03-08T11:36:13;4.93;;;2.50;;
45077;SDS011;60508;42.622;25.416;2024-03-08T11:39:14;13.00;;;9.43;;
45077;SDS011;60508;42.622;25.416;2024-03-08T11:44:11;3.65;;;2.38;;
45077;SDS011;60508;42.622;25.416;2024-03-08T11:46:42;3.58;;;3.28;;
45077;SDS011;60508;42.622;25.416;2024-03-08T11:49:12;5.10;;;3.63;;
45077;SDS011;60508;42.622;25.416;2024-03-08T11:51:59;13.13;;;5.30;;
45077;SDS011;60508;42.622;25.416;2024-03-08T11:54:26;6.80;;;5.03;;
45077;SDS011;60508;42.622;25.416;2024-03-08T11:56:52;3.70;;;2.83;;
45077;SDS011;60508;42.622;25.416;2024-03-08T11:59:20;2.42;;;1.92;;
45077;SDS011;60508;42.622;25.416;2024-03-08T12:02:03;6.55;;;3.78;;
45077;SDS011;60508;42.622;25.416;2024-03-08T12:04:58;5.43;;;3.65;;
45077;SDS011;60508;42.622;25.416;2024-03-08T12:07:26;8.75;;;3.58;;
45077;SDS011;60508;42.622;25.416;2024-03-08T12:10:20;6.18;;;4.53;;
45077;SDS011;60508;42.622;25.416;2024-03-08T12:12:48;2.25;;;2.05;;
45077;SDS011;60508;42.622;25.416;2024-03-08T12:15:37;3.80;;;2.15;;
45077;SDS011;60508;42.622;25.416;2024-03-08T12:18:03;6.55;;;3.97;;
45077;SDS011;60508;42.622;25.416;2024-03-08T12:20:31;3.20;;;1.85;;
45077;SDS011;60508;42.622;25.416;2024-03-08T12:23:17;3.63;;;2.92;;
45077;SDS011;60508;42.622;25.416;2024-03-08T12:25:44;3.60;;;2.70;;
45077;SDS011;60508;42.622;25.416;2024-03-08T12:28:11;5.28;;;3.83;;
45077;SDS011;60508;42.622;25.416;2024-03-08T12:30:46;4.30;;;2.55;;
45077;SDS011;60508;42.622;25.416;2024-03-08T12:33:20;2.47;;;2.28;;
45077;SDS011;60508;42.622;25.416;2024-03-08T12:35:54;2.55;;;1.75;;
45077;SDS011;60508;42.622;25.416;2024-03-08T12:38:24;2.33;;;2.13;;
45077;SDS011;60508;42.622;25.416;2024-03-08T12:41:17;3.78;;;2.97;;
45077;SDS011;60508;42.622;25.416;2024-03-08T12:43:45;3.22;;;2.92;;
45077;SDS011;60508;42.622;25.416;2024-03-08T12:46:15;5.97;;;2.60;;
45077;SDS011;60508;42.622;25.416;2024-03-08T12:49:09;7.25;;;2.47;;
45077;SDS011;60508;42.622;25.416;2024-03-08T12:51:36;1.60;;;1.50;;
45077;SDS011;60508;42.622;25.416;2024-03-08T12:54:25;2.47;;;2.00;;
45077;SDS011;60508;42.622;25.416;2024-03-08T12:56:51;2.08;;;1.67;;
45077;SDS011;60508;42.622;25.416;2024-03-08T12:59:20;2.80;;;1.77;;
45077;SDS011;60508;42.622;25.416;2024-03-08T13:02:07;2.17;;;1.98;;
45077;SDS011;60508;42.622;25.416;2024-03-08T13:04:37;2.10;;;1.90;;
45077;SDS011;60508;42.622;25.416;2024-03-08T13:07:23;2.70;;;2.08;;
45077;SDS011;60508;42.622;25.416;2024-03-08T13:09:52;2.22;;;1.85;;
45077;SDS011;60508;42.622;25.416;2024-03-08T13:12:20;2.30;;;2.08;;
45077;SDS011;60508;42.622;25.416;2024-03-08T13:14:47;2.85;;;2.28;;
45077;SDS011;60508;42.622;25.416;2024-03-08T13:17:34;1.98;;;1.70;;
45077;SDS011;60508;42.622;25.416;2024-03-08T13:20:00;2.67;;;2.15;;
45077;SDS011;60508;42.622;25.416;2024-03-08T13:22:27;4.07;;;1.58;;
45077;SDS011;60508;42.622;25.416;2024-03-08T13:24:54;2.20;;;1.75;;
45077;SDS011;60508;42.622;25.416;2024-03-08T13:27:41;1.73;;;1.63;;
45077;SDS011;60508;42.622;25.416;2024-03-08T13:30:09;2.30;;;1.77;;
45077;SDS011;60508;42.622;25.416;2024-03-08T13:32:44;3.05;;;1.75;;
45077;SDS011;60508;42.622;25.416;2024-03-08T13:35:11;3.88;;;1.95;;
45077;SDS011;60508;42.622;25.416;2024-03-08T13:37:42;2.70;;;1.83;;
45077;SDS011;60508;42.622;25.416;2024-03-08T13:40:29;2.05;;;1.90;;
45077;SDS011;60508;42.622;25.416;2024-03-08T13:42:57;2.22;;;2.03;;
45077;SDS011;60508;42.622;25.416;2024-03-08T13:45:44;1.77;;;1.63;;
45077;SDS011;60508;42.622;25.416;2024-03-08T13:48:12;1.80;;;1.63;;
45077;SDS011;60508;42.622;25.416;2024-03-08T13:50:38;2.00;;;1.80;;
45077;SDS011;60508;42.622;25.416;2024-03-08T13:53:05;7.20;;;4.13;;
45077;SDS011;60508;42.622;25.416;2024-03-08T13:55:52;4.75;;;2.97;;
45077;SDS011;60508;42.622;25.416;2024-03-08T13:58:18;5.60;;;2.95;;
45077;SDS011;60508;42.622;25.416;2024-03-08T14:00:46;5.95;;;3.05;;
45077;SDS011;60508;42.622;25.416;2024-03-08T14:03:13;8.85;;;3.28;;
45077;SDS011;60508;42.622;25.416;2024-03-08T14:05:40;3.60;;;2.67;;
45077;SDS011;60508;42.622;25.416;2024-03-08T14:08:08;5.40;;;2.80;;
45077;SDS011;60508;42.622;25.416;2024-03-08T14:13:23;3.28;;;2.67;;
45077;SDS011;60508;42.622;25.416;2024-03-08T14:16:11;5.90;;;3.45;;
45077;SDS011;60508;42.622;25.416;2024-03-08T14:18:38;5.03;;;3.22;;
45077;SDS011;60508;42.622;25.416;2024-03-08T14:21:05;4.72;;;3.40;;
45077;SDS011;60508;42.622;25.416;2024-03-08T14:23:31;5.13;;;3.63;;
45077;SDS011;60508;42.622;25.416;2024-03-08T14:25:58;5.22;;;3.17;;
45077;SDS011;60508;42.622;25.416;2024-03-08T14:28:45;10.57;;;3.42;;
45077;SDS011;60508;42.622;25.416;2024-03-08T14:31:11;4.50;;;3.42;;
45077;SDS011;60508;42.622;25.416;2024-03-08T14:33:58;5.55;;;3.30;;
45077;SDS011;60508;42.622;25.416;2024-03-08T14:36:25;3.50;;;2.80;;
45077;SDS011;60508;42.622;25.416;2024-03-08T14:38:52;3.38;;;3.05;;
45077;SDS011;60508;42.622;25.416;2024-03-08T14:41:18;4.50;;;3.10;;
45077;SDS011;60508;42.622;25.416;2024-03-08T14:44:05;4.28;;;3.35;;
45077;SDS011;60508;42.622;25.416;2024-03-08T14:46:31;6.57;;;4.00;;
45077;SDS011;60508;42.622;25.416;2024-03-08T14:49:07;4.70;;;3.92;;
45077;SDS011;60508;42.622;25.416;2024-03-08T14:51:41;6.65;;;4.38;;
45077;SDS011;60508;42.622;25.416;2024-03-08T14:54:08;5.50;;;4.15;;
45077;SDS011;60508;42.622;25.416;2024-03-08T14:56:56;9.35;;;4.55;;
45077;SDS011;60508;42.622;25.416;2024-03-08T14:59:22;5.32;;;4.32;;
45077;SDS011;60508;42.622;25.416;2024-03-08T15:01:49;4.68;;;3.20;;
45077;SDS011;60508;42.622;25.416;2024-03-08T15:04:15;6.30;;;3.00;;
45077;SDS011;60508;42.622;25.416;2024-03-08T15:07:04;3.40;;;2.92;;
45077;SDS011;60508;42.622;25.416;2024-03-08T15:09:31;6.65;;;3.60;;
45077;SDS011;60508;42.622;25.416;2024-03-08T15:12:08;4.88;;;3.78;;
45077;SDS011;60508;42.622;25.416;2024-03-08T15:14:39;4.93;;;4.10;;
45077;SDS011;60508;42.622;25.416;2024-03-08T15:17:26;4.35;;;3.35;;